sensor_id;sensor_type;location;lat;lon;timestamp;P1;durP1;ratioP1;P2;durP2;ratioP2
30181;SDS011;16990;49.056;9.240;2022-07-23T00:00:18;8.15;;;6.63;;
30181;SDS011;16990;49.056;9.240;2022-07-23T00:02:47;9.30;;;6.15;;
30181;SDS011;16990;49.056;9.240;2022-07-23T00:05:14;10.20;;;6.40;;
30181;SDS011;16990;49.056;9.240;2022-07-23T00:07:40;9.27;;;5.80;;
30181;SDS011;16990;49.056;9.240;2022-07-23T00:10:07;11.15;;;6.90;;
30181;SDS011;16990;49.056;9.240;2022-07-23T00:12:35;11.23;;;6.80;;
30181;SDS011;16990;49.056;9.240;2022-07-23T00:15:02;9.73;;;5.95;;
30181;SDS011;16990;49.056;9.240;2022-07-23T00:17:30;8.57;;;6.28;;
30181;SDS011;16990;49.056;9.240;2022-07-23T00:19:58;12.77;;;6.07;;
30181;SDS011;16990;49.056;9.240;2022-07-23T00:22:25;9.93;;;6.60;;
30181;SDS011;16990;49.056;9.240;2022-07-23T00:24:52;9.43;;;6.82;;
30181;SDS011;16990;49.056;9.240;2022-07-23T00:27:19;11.77;;;5.78;;
30181;SDS011;16990;49.056;9.240;2022-07-23T00:29:46;13.50;;;5.70;;
30181;SDS011;16990;49.056;9.240;2022-07-23T00:32:13;9.10;;;5.95;;
30181;SDS011;16990;49.056;9.240;2022-07-23T00:34:39;9.02;;;6.13;;
30181;SDS011;16990;49.056;9.240;2022-07-23T00:37:07;8.50;;;5.38;;
30181;SDS011;16990;49.056;9.240;2022-07-23T00:39:34;14.50;;;6.18;;
30181;SDS011;16990;49.056;9.240;2022-07-23T00:42:00;9.75;;;5.65;;
30181;SDS011;16990;49.056;9.240;2022-07-23T00:44:27;13.93;;;5.60;;
30181;SDS011;16990;49.056;9.240;2022-07-23T00:46:55;7.75;;;5.45;;
30181;SDS011;16990;49.056;9.240;2022-07-23T00:49:25;8.57;;;5.15;;
30181;SDS011;16990;49.056;9.240;2022-07-23T00:51:53;11.00;;;5.75;;
30181;SDS011;16990;49.056;9.240;2022-07-23T00:54:23;9.70;;;5.32;;
30181;SDS011;16990;49.056;9.240;2022-07-23T00:56:52;7.18;;;5.22;;
30181;SDS011;16990;49.056;9.240;2022-07-23T00:59:19;8.52;;;5.13;;
30181;SDS011;16990;49.056;9.240;2022-07-23T01:01:46;9.73;;;5.75;;
30181;SDS011;16990;49.056;9.240;2022-07-23T01:04:14;10.43;;;5.30;;
30181;SDS011;16990;49.056;9.240;2022-07-23T01:06:41;6.68;;;4.93;;
30181;SDS011;16990;49.056;9.240;2022-07-23T01:09:10;7.63;;;5.57;;
30181;SDS011;16990;49.056;9.240;2022-07-23T01:11:38;8.43;;;5.38;;
30181;SDS011;16990;49.056;9.240;2022-07-23T01:14:09;8.88;;;5.15;;
30181;SDS011;16990;49.056;9.240;2022-07-23T01:16:37;9.30;;;5.13;;
30181;SDS011;16990;49.056;9.240;2022-07-23T01:19:03;7.50;;;5.72;;
30181;SDS011;16990;49.056;9.240;2022-07-23T01:21:31;6.90;;;5.13;;
30181;SDS011;16990;49.056;9.240;2022-07-23T01:24:03;7.70;;;5.05;;
30181;SDS011;16990;49.056;9.240;2022-07-23T01:26:30;8.05;;;5.45;;
30181;SDS011;16990;49.056;9.240;2022-07-23T01:28:57;8.43;;;5.50;;
30181;SDS011;16990;49.056;9.240;2022-07-23T01:31:23;7.53;;;5.00;;
30181;SDS011;16990;49.056;9.240;2022-07-23T01:33:50;5.50;;;4.50;;
30181;SDS011;16990;49.056;9.240;2022-07-23T01:36:17;8.45;;;5.28;;
30181;SDS011;16990;49.056;9.240;2022-07-23T01:38:44;5.13;;;4.63;;
30181;SDS011;16990;49.056;9.240;2022-07-23T01:41:12;11.25;;;4.88;;
30181;SDS011;16990;49.056;9.240;2022-07-23T01:43:38;9.80;;;5.63;;
30181;SDS011;16990;49.056;9.240;2022-07-23T01:49:22;7.55;;;5.00;;
30181;SDS011;16990;49.056;9.240;2022-07-23T01:51:49;7.97;;;5.13;;
30181;SDS011;16990;49.056;9.240;2022-07-23T01:54:29;8.50;;;5.28;;
30181;SDS011;16990;49.056;9.240;2022-07-23T01:56:58;6.68;;;5.03;;
30181;SDS011;16990;49.056;9.240;2022-07-23T01:59:26;8.57;;;5.22;;
30181;SDS011;16990;49.056;9.240;2022-07-23T02:01:53;7.90;;;5.25;;
30181;SDS011;16990;49.056;9.240;2022-07-23T02:04:20;6.25;;;5.10;;
30181;SDS011;16990;49.056;9.240;2022-07-23T02:06:48;5.68;;;5.03;;
30181;SDS011;16990;49.056;9.240;2022-07-23T02:09:15;7.45;;;4.97;;
30181;SDS011;16990;49.056;9.240;2022-07-23T02:11:43;9.85;;;4.80;;
30181;SDS011;16990;49.056;9.240;2022-07-23T02:14:11;9.50;;;5.90;;
30181;SDS011;16990;49.056;9.240;2022-07-23T02:16:38;7.85;;;5.65;;
30181;SDS011;16990;49.056;9.240;2022-07-23T02:19:05;6.05;;;5.43;;
30181;SDS011;16990;49.056;9.240;2022-07-23T02:21:31;7.43;;;4.95;;
30181;SDS011;16990;49.056;9.240;2022-07-23T02:23:58;8.75;;;5.65;;
30181;SDS011;16990;49.056;9.240;2022-07-23T02:26:25;8.95;;;6.80;;
30181;SDS011;16990;49.056;9.240;2022-07-23T02:28:51;10.05;;;6.30;;
30181;SDS011;16990;49.056;9.240;2022-07-23T02:31:20;12.13;;;8.95;;
30181;SDS011;16990;49.056;9.240;2022-07-23T02:33:47;17.58;;;12.25;;
30181;SDS011;16990;49.056;9.240;2022-07-23T02:36:13;19.80;;;14.50;;
30181;SDS011;16990;49.056;9.240;2022-07-23T02:38:40;18.48;;;11.98;;
30181;SDS011;16990;49.056;9.240;2022-07-23T02:41:06;18.50;;;10.82;;
30181;SDS011;16990;49.056;9.240;2022-07-23T02:43:33;16.65;;;9.02;;
30181;SDS011;16990;49.056;9.240;2022-07-23T02:46:00;11.52;;;8.80;;
30181;SDS011;16990;49.056;9.240;2022-07-23T02:48:28;13.23;;;8.27;;
30181;SDS011;16990;49.056;9.240;2022-07-23T02:50:55;10.98;;;7.88;;
30181;SDS011;16990;49.056;9.240;2022-07-23T02:53:21;13.00;;;7.78;;
30181;SDS011;16990;49.056;9.240;2022-07-23T02:55:48;16.95;;;8.23;;
30181;SDS011;16990;49.056;9.240;2022-07-23T02:58:15;13.00;;;7.88;;
30181;SDS011;16990;49.056;9.240;2022-07-23T03:00:42;11.10;;;7.47;;
30181;SDS011;16990;49.056;9.240;2022-07-23T03:03:09;11.90;;;7.40;;
30181;SDS011;16990;49.056;9.240;2022-07-23T03:05:37;10.65;;;7.32;;
30181;SDS011;16990;49.056;9.240;2022-07-23T03:08:03;10.65;;;7.07;;
30181;SDS011;16990;49.056;9.240;2022-07-23T03:10:30;12.60;;;7.30;;
30181;SDS011;16990;49.056;9.240;2022-07-23T03:12:57;12.63;;;7.18;;
30181;SDS011;16990;49.056;9.240;2022-07-23T03:15:23;11.98;;;6.97;;
30181;SDS011;16990;49.056;9.240;2022-07-23T03:17:50;8.60;;;6.45;;
30181;SDS011;16990;49.056;9.240;2022-07-23T03:20:16;9.40;;;6.45;;
30181;SDS011;16990;49.056;9.240;2022-07-23T03:22:44;10.95;;;6.07;;
30181;SDS011;16990;49.056;9.240;2022-07-23T03:25:11;8.95;;;6.78;;
30181;SDS011;16990;49.056;9.240;2022-07-23T03:27:38;6.95;;;5.97;;
30181;SDS011;16990;49.056;9.240;2022-07-23T03:30:05;7.60;;;6.32;;
30181;SDS011;16990;49.056;9.240;2022-07-23T03:32:33;10.02;;;6.50;;
30181;SDS011;16990;49.056;9.240;2022-07-23T03:34:59;8.70;;;6.25;;
30181;SDS011;16990;49.056;9.240;2022-07-23T03:37:26;8.70;;;6.32;;
30181;SDS011;16990;49.056;9.240;2022-07-23T03:39:54;9.90;;;5.95;;
30181;SDS011;16990;49.056;9.240;2022-07-23T03:42:21;8.60;;;6.05;;
30181;SDS011;16990;49.056;9.240;2022-07-23T03:44:48;13.73;;;7.63;;
30181;SDS011;16990;49.056;9.240;2022-07-23T03:47:14;13.38;;;6.50;;
30181;SDS011;16990;49.056;9.240;2022-07-23T03:49:42;10.25;;;6.97;;
30181;SDS011;16990;49.056;9.240;2022-07-23T03:52:08;10.85;;;6.93;;
30181;SDS011;16990;49.056;9.240;2022-07-23T03:54:35;10.02;;;6.45;;
30181;SDS011;16990;49.056;9.240;2022-07-23T03:57:03;8.10;;;6.28;;
30181;SDS011;16990;49.056;9.240;2022-07-23T03:59:30;11.85;;;6.18;;
30181;SDS011;16990;49.056;9.240;2022-07-23T04:01:56;9.68;;;6.53;;
30181;SDS011;16990;49.056;9.240;2022-07-23T04:04:23;10.60;;;6.78;;
30181;SDS011;16990;49.056;9.240;2022-07-23T04:06:50;9.45;;;6.70;;
30181;SDS011;16990;49.056;9.240;2022-07-23T04:09:16;11.50;;;6.10;;
30181;SDS011;16990;49.056;9.240;2022-07-23T04:11:43;7.60;;;5.72;;
30181;SDS011;16990;49.056;9.240;2022-07-23T04:14:11;9.85;;;6.80;;
30181;SDS011;16990;49.056;9.240;2022-07-23T04:16:38;9.57;;;6.03;;
30181;SDS011;16990;49.056;9.240;2022-07-23T04:19:04;12.20;;;6.32;;
30181;SDS011;16990;49.056;9.240;2022-07-23T04:21:31;9.57;;;5.90;;
30181;SDS011;16990;49.056;9.240;2022-07-23T04:23:57;10.77;;;5.88;;
30181;SDS011;16990;49.056;9.240;2022-07-23T04:26:24;9.25;;;5.43;;
30181;SDS011;16990;49.056;9.240;2022-07-23T04:28:51;15.25;;;6.20;;
30181;SDS011;16990;49.056;9.240;2022-07-23T04:31:19;13.38;;;6.05;;
30181;SDS011;16990;49.056;9.240;2022-07-23T04:33:45;9.73;;;5.85;;
30181;SDS011;16990;49.056;9.240;2022-07-23T04:36:12;12.65;;;6.07;;
30181;SDS011;16990;49.056;9.240;2022-07-23T04:38:38;7.65;;;5.32;;
30181;SDS011;16990;49.056;9.240;2022-07-23T04:41:05;6.20;;;5.13;;
30181;SDS011;16990;49.056;9.240;2022-07-23T04:43:32;8.27;;;6.00;;
30181;SDS011;16990;49.056;9.240;2022-07-23T04:45:58;8.93;;;5.45;;
30181;SDS011;16990;49.056;9.240;2022-07-23T04:48:26;10.60;;;6.32;;
30181;SDS011;16990;49.056;9.240;2022-07-23T04:50:53;8.73;;;6.03;;
30181;SDS011;16990;49.056;9.240;2022-07-23T04:53:19;11.27;;;5.82;;
30181;SDS011;16990;49.056;9.240;2022-07-23T04:55:46;9.82;;;6.03;;
30181;SDS011;16990;49.056;9.240;2022-07-23T04:58:13;8.07;;;5.38;;
30181;SDS011;16990;49.056;9.240;2022-07-23T05:00:39;10.15;;;6.55;;
30181;SDS011;16990;49.056;9.240;2022-07-23T05:03:06;12.45;;;6.28;;
30181;SDS011;16990;49.056;9.240;2022-07-23T05:05:34;9.55;;;6.43;;
30181;SDS011;16990;49.056;9.240;2022-07-23T05:08:01;13.75;;;7.03;;
30181;SDS011;16990;49.056;9.240;2022-07-23T05:10:28;10.60;;;6.65;;
30181;SDS011;16990;49.056;9.240;2022-07-23T05:12:55;7.60;;;6.15;;
30181;SDS011;16990;49.056;9.240;2022-07-23T05:15:21;9.88;;;5.95;;
30181;SDS011;16990;49.056;9.240;2022-07-23T05:17:48;12.73;;;7.25;;
30181;SDS011;16990;49.056;9.240;2022-07-23T05:20:15;7.22;;;6.10;;
30181;SDS011;16990;49.056;9.240;2022-07-23T05:22:43;7.40;;;6.20;;
30181;SDS011;16990;49.056;9.240;2022-07-23T05:25:09;13.25;;;7.00;;
30181;SDS011;16990;49.056;9.240;2022-07-23T05:27:36;11.02;;;6.70;;
30181;SDS011;16990;49.056;9.240;2022-07-23T05:30:03;12.52;;;6.95;;
30181;SDS011;16990;49.056;9.240;2022-07-23T05:32:30;13.10;;;7.30;;
30181;SDS011;16990;49.056;9.240;2022-07-23T05:34:57;11.23;;;7.25;;
30181;SDS011;16990;49.056;9.240;2022-07-23T05:37:24;10.90;;;7.72;;
30181;SDS011;16990;49.056;9.240;2022-07-23T05:39:52;10.40;;;7.35;;
30181;SDS011;16990;49.056;9.240;2022-07-23T05:42:19;9.23;;;7.05;;
30181;SDS011;16990;49.056;9.240;2022-07-23T05:44:45;10.80;;;8.02;;
30181;SDS011;16990;49.056;9.240;2022-07-23T05:47:12;16.85;;;8.85;;
30181;SDS011;16990;49.056;9.240;2022-07-23T05:49:39;12.27;;;8.32;;
30181;SDS011;16990;49.056;9.240;2022-07-23T05:52:06;10.50;;;7.50;;
30181;SDS011;16990;49.056;9.240;2022-07-23T05:54:33;11.55;;;7.80;;
30181;SDS011;16990;49.056;9.240;2022-07-23T05:57:03;14.25;;;8.15;;
30181;SDS011;16990;49.056;9.240;2022-07-23T05:59:30;14.68;;;8.20;;
30181;SDS011;16990;49.056;9.240;2022-07-23T06:01:57;14.05;;;8.85;;
30181;SDS011;16990;49.056;9.240;2022-07-23T06:04:23;17.95;;;9.20;;
30181;SDS011;16990;49.056;9.240;2022-07-23T06:06:50;18.30;;;9.43;;
30181;SDS011;16990;49.056;9.240;2022-07-23T06:09:17;13.07;;;9.23;;
30181;SDS011;16990;49.056;9.240;2022-07-23T06:11:44;13.48;;;10.13;;
30181;SDS011;16990;49.056;9.240;2022-07-23T06:14:12;14.50;;;9.50;;
30181;SDS011;16990;49.056;9.240;2022-07-23T06:16:39;12.30;;;9.98;;
30181;SDS011;16990;49.056;9.240;2022-07-23T06:19:05;16.25;;;9.65;;
30181;SDS011;16990;49.056;9.240;2022-07-23T06:21:32;17.48;;;10.25;;
30181;SDS011;16990;49.056;9.240;2022-07-23T06:23:59;12.13;;;9.48;;
30181;SDS011;16990;49.056;9.240;2022-07-23T06:26:26;16.60;;;8.85;;
30181;SDS011;16990;49.056;9.240;2022-07-23T06:28:52;19.42;;;8.68;;
30181;SDS011;16990;49.056;9.240;2022-07-23T06:31:20;17.48;;;10.05;;
30181;SDS011;16990;49.056;9.240;2022-07-23T06:33:47;17.98;;;10.55;;
30181;SDS011;16990;49.056;9.240;2022-07-23T06:36:15;20.08;;;10.05;;
30181;SDS011;16990;49.056;9.240;2022-07-23T06:38:41;16.02;;;10.18;;
30181;SDS011;16990;49.056;9.240;2022-07-23T06:41:08;14.93;;;10.77;;
30181;SDS011;16990;49.056;9.240;2022-07-23T06:43:34;16.50;;;10.88;;
30181;SDS011;16990;49.056;9.240;2022-07-23T06:46:01;13.93;;;9.40;;
30181;SDS011;16990;49.056;9.240;2022-07-23T06:48:29;14.82;;;9.95;;
30181;SDS011;16990;49.056;9.240;2022-07-23T06:50:55;15.18;;;9.85;;
30181;SDS011;16990;49.056;9.240;2022-07-23T06:53:22;16.95;;;9.73;;
30181;SDS011;16990;49.056;9.240;2022-07-23T06:55:49;21.17;;;9.68;;
30181;SDS011;16990;49.056;9.240;2022-07-23T06:58:15;13.30;;;9.38;;
30181;SDS011;16990;49.056;9.240;2022-07-23T07:00:43;14.80;;;9.52;;
30181;SDS011;16990;49.056;9.240;2022-07-23T07:03:10;13.90;;;10.23;;
30181;SDS011;16990;49.056;9.240;2022-07-23T07:05:38;11.27;;;9.30;;
30181;SDS011;16990;49.056;9.240;2022-07-23T07:08:05;11.82;;;9.52;;
30181;SDS011;16990;49.056;9.240;2022-07-23T07:10:32;19.13;;;9.70;;
30181;SDS011;16990;49.056;9.240;2022-07-23T07:12:59;15.38;;;10.80;;
30181;SDS011;16990;49.056;9.240;2022-07-23T07:15:25;17.33;;;11.25;;
30181;SDS011;16990;49.056;9.240;2022-07-23T07:17:52;13.20;;;10.40;;
30181;SDS011;16990;49.056;9.240;2022-07-23T07:20:19;15.65;;;10.77;;
30181;SDS011;16990;49.056;9.240;2022-07-23T07:22:47;15.70;;;11.43;;
30181;SDS011;16990;49.056;9.240;2022-07-23T07:25:14;16.02;;;11.40;;
30181;SDS011;16990;49.056;9.240;2022-07-23T07:27:40;17.42;;;10.82;;
30181;SDS011;16990;49.056;9.240;2022-07-23T07:30:09;20.73;;;11.57;;
30181;SDS011;16990;49.056;9.240;2022-07-23T07:32:37;16.38;;;12.57;;
30181;SDS011;16990;49.056;9.240;2022-07-23T07:35:04;16.80;;;11.55;;
30181;SDS011;16990;49.056;9.240;2022-07-23T07:37:31;13.88;;;10.85;;
30181;SDS011;16990;49.056;9.240;2022-07-23T07:39:59;14.25;;;11.15;;
30181;SDS011;16990;49.056;9.240;2022-07-23T07:42:26;17.08;;;10.57;;
30181;SDS011;16990;49.056;9.240;2022-07-23T07:44:53;16.60;;;12.02;;
30181;SDS011;16990;49.056;9.240;2022-07-23T07:47:19;12.45;;;9.82;;
30181;SDS011;16990;49.056;9.240;2022-07-23T07:49:46;18.13;;;10.45;;
30181;SDS011;16990;49.056;9.240;2022-07-23T07:52:13;14.38;;;11.10;;
30181;SDS011;16990;49.056;9.240;2022-07-23T07:54:39;13.30;;;10.27;;
30181;SDS011;16990;49.056;9.240;2022-07-23T07:57:08;15.35;;;11.20;;
30181;SDS011;16990;49.056;9.240;2022-07-23T07:59:34;14.38;;;10.70;;
30181;SDS011;16990;49.056;9.240;2022-07-23T08:02:01;17.88;;;11.13;;
30181;SDS011;16990;49.056;9.240;2022-07-23T08:04:28;21.35;;;11.43;;
30181;SDS011;16990;49.056;9.240;2022-07-23T08:06:55;19.02;;;11.82;;
30181;SDS011;16990;49.056;9.240;2022-07-23T08:09:21;25.73;;;11.77;;
30181;SDS011;16990;49.056;9.240;2022-07-23T08:11:48;16.30;;;11.20;;
30181;SDS011;16990;49.056;9.240;2022-07-23T08:14:18;17.65;;;11.93;;
30181;SDS011;16990;49.056;9.240;2022-07-23T08:16:45;14.73;;;10.80;;
30181;SDS011;16990;49.056;9.240;2022-07-23T08:19:11;18.15;;;10.95;;
30181;SDS011;16990;49.056;9.240;2022-07-23T08:21:38;13.77;;;10.52;;
30181;SDS011;16990;49.056;9.240;2022-07-23T08:24:05;15.75;;;10.32;;
30181;SDS011;16990;49.056;9.240;2022-07-23T08:26:31;15.60;;;10.93;;
30181;SDS011;16990;49.056;9.240;2022-07-23T08:28:58;17.92;;;10.88;;
30181;SDS011;16990;49.056;9.240;2022-07-23T08:31:26;19.17;;;10.98;;
30181;SDS011;16990;49.056;9.240;2022-07-23T08:33:52;29.40;;;13.07;;
30181;SDS011;16990;49.056;9.240;2022-07-23T08:36:20;23.30;;;12.40;;
30181;SDS011;16990;49.056;9.240;2022-07-23T08:38:46;20.35;;;10.70;;
30181;SDS011;16990;49.056;9.240;2022-07-23T08:41:13;20.73;;;11.65;;
30181;SDS011;16990;49.056;9.240;2022-07-23T08:43:41;17.27;;;11.30;;
30181;SDS011;16990;49.056;9.240;2022-07-23T08:46:08;17.25;;;11.68;;
30181;SDS011;16990;49.056;9.240;2022-07-23T08:48:36;19.58;;;11.73;;
30181;SDS011;16990;49.056;9.240;2022-07-23T08:51:03;15.80;;;11.43;;
30181;SDS011;16990;49.056;9.240;2022-07-23T08:53:32;16.23;;;10.18;;
30181;SDS011;16990;49.056;9.240;2022-07-23T08:56:01;13.00;;;9.85;;
30181;SDS011;16990;49.056;9.240;2022-07-23T08:58:29;11.77;;;9.73;;
30181;SDS011;16990;49.056;9.240;2022-07-23T09:00:57;20.02;;;10.30;;
30181;SDS011;16990;49.056;9.240;2022-07-23T09:03:24;17.20;;;10.82;;
30181;SDS011;16990;49.056;9.240;2022-07-23T09:05:54;16.55;;;11.40;;
30181;SDS011;16990;49.056;9.240;2022-07-23T09:08:22;28.35;;;14.88;;
30181;SDS011;16990;49.056;9.240;2022-07-23T09:10:51;19.92;;;11.90;;
30181;SDS011;16990;49.056;9.240;2022-07-23T09:13:30;15.18;;;9.88;;
30181;SDS011;16990;49.056;9.240;2022-07-23T09:16:00;14.23;;;10.50;;
30181;SDS011;16990;49.056;9.240;2022-07-23T09:18:29;16.85;;;10.73;;
30181;SDS011;16990;49.056;9.240;2022-07-23T09:21:14;15.00;;;10.45;;
30181;SDS011;16990;49.056;9.240;2022-07-23T09:23:47;17.83;;;12.43;;
30181;SDS011;16990;49.056;9.240;2022-07-23T09:26:32;13.65;;;11.25;;
30181;SDS011;16990;49.056;9.240;2022-07-23T09:29:02;15.68;;;10.98;;
30181;SDS011;16990;49.056;9.240;2022-07-23T09:31:31;21.27;;;12.27;;
30181;SDS011;16990;49.056;9.240;2022-07-23T09:34:10;21.20;;;12.38;;
30181;SDS011;16990;49.056;9.240;2022-07-23T09:36:40;15.70;;;11.75;;
30181;SDS011;16990;49.056;9.240;2022-07-23T09:39:08;11.15;;;8.38;;
30181;SDS011;16990;49.056;9.240;2022-07-23T09:41:37;10.57;;;8.35;;
30181;SDS011;16990;49.056;9.240;2022-07-23T09:44:06;12.93;;;10.27;;
30181;SDS011;16990;49.056;9.240;2022-07-23T09:46:41;11.52;;;9.95;;
30181;SDS011;16990;49.056;9.240;2022-07-23T09:49:10;12.63;;;9.80;;
30181;SDS011;16990;49.056;9.240;2022-07-23T09:51:45;15.43;;;7.75;;
30181;SDS011;16990;49.056;9.240;2022-07-23T09:54:21;12.88;;;8.15;;
30181;SDS011;16990;49.056;9.240;2022-07-23T09:56:53;9.93;;;6.72;;
30181;SDS011;16990;49.056;9.240;2022-07-23T09:59:22;13.82;;;8.45;;
30181;SDS011;16990;49.056;9.240;2022-07-23T10:01:53;10.90;;;7.30;;
30181;SDS011;16990;49.056;9.240;2022-07-23T10:04:22;11.48;;;8.13;;
30181;SDS011;16990;49.056;9.240;2022-07-23T10:06:52;12.10;;;8.48;;
30181;SDS011;16990;49.056;9.240;2022-07-23T10:09:22;11.90;;;8.18;;
30181;SDS011;16990;49.056;9.240;2022-07-23T10:11:50;12.38;;;8.23;;
30181;SDS011;16990;49.056;9.240;2022-07-23T10:14:16;11.82;;;8.55;;
30181;SDS011;16990;49.056;9.240;2022-07-23T10:16:44;10.35;;;7.25;;
30181;SDS011;16990;49.056;9.240;2022-07-23T10:19:11;9.65;;;6.78;;
30181;SDS011;16990;49.056;9.240;2022-07-23T10:21:39;14.27;;;7.72;;
30181;SDS011;16990;49.056;9.240;2022-07-23T10:24:12;10.50;;;7.40;;
30181;SDS011;16990;49.056;9.240;2022-07-23T10:26:49;11.00;;;7.45;;
30181;SDS011;16990;49.056;9.240;2022-07-23T10:29:28;9.65;;;7.13;;
30181;SDS011;16990;49.056;9.240;2022-07-23T10:32:08;9.02;;;7.63;;
30181;SDS011;16990;49.056;9.240;2022-07-23T10:34:48;8.60;;;6.65;;
30181;SDS011;16990;49.056;9.240;2022-07-23T10:37:21;8.20;;;6.35;;
30181;SDS011;16990;49.056;9.240;2022-07-23T10:40:12;9.75;;;6.50;;
30181;SDS011;16990;49.056;9.240;2022-07-23T10:42:42;8.48;;;6.38;;
30181;SDS011;16990;49.056;9.240;2022-07-23T10:45:22;6.78;;;5.57;;
30181;SDS011;16990;49.056;9.240;2022-07-23T10:47:53;8.33;;;6.03;;
30181;SDS011;16990;49.056;9.240;2022-07-23T10:50:20;11.18;;;6.60;;
30181;SDS011;16990;49.056;9.240;2022-07-23T10:55:49;8.02;;;6.38;;
30181;SDS011;16990;49.056;9.240;2022-07-23T10:58:21;10.38;;;6.25;;
30181;SDS011;16990;49.056;9.240;2022-07-23T11:04:01;8.15;;;5.38;;
30181;SDS011;16990;49.056;9.240;2022-07-23T11:09:38;9.18;;;6.47;;
30181;SDS011;16990;49.056;9.240;2022-07-23T11:15:05;7.80;;;6.40;;
30181;SDS011;16990;49.056;9.240;2022-07-23T11:17:34;11.25;;;6.32;;
30181;SDS011;16990;49.056;9.240;2022-07-23T11:20:18;9.20;;;6.32;;
30181;SDS011;16990;49.056;9.240;2022-07-23T11:22:48;7.28;;;5.90;;
30181;SDS011;16990;49.056;9.240;2022-07-23T11:25:30;7.13;;;6.28;;
30181;SDS011;16990;49.056;9.240;2022-07-23T11:28:11;8.70;;;6.60;;
30181;SDS011;16990;49.056;9.240;2022-07-23T11:30:42;8.70;;;6.55;;
30181;SDS011;16990;49.056;9.240;2022-07-23T11:33:16;10.48;;;6.40;;
30181;SDS011;16990;49.056;9.240;2022-07-23T11:35:45;14.25;;;7.00;;
30181;SDS011;16990;49.056;9.240;2022-07-23T11:38:15;11.50;;;6.78;;
30181;SDS011;16990;49.056;9.240;2022-07-23T11:40:45;9.52;;;6.65;;
30181;SDS011;16990;49.056;9.240;2022-07-23T11:43:14;9.23;;;7.15;;
30181;SDS011;16990;49.056;9.240;2022-07-23T11:45:41;8.60;;;7.00;;
30181;SDS011;16990;49.056;9.240;2022-07-23T11:48:09;9.07;;;6.88;;
30181;SDS011;16990;49.056;9.240;2022-07-23T11:50:42;12.63;;;5.83;;
30181;SDS011;16990;49.056;9.240;2022-07-23T11:53:09;9.57;;;6.15;;
30181;SDS011;16990;49.056;9.240;2022-07-23T11:55:36;7.43;;;5.55;;
30181;SDS011;16990;49.056;9.240;2022-07-23T11:58:02;8.35;;;5.63;;
30181;SDS011;16990;49.056;9.240;2022-07-23T12:00:31;9.40;;;5.75;;
30181;SDS011;16990;49.056;9.240;2022-07-23T12:02:58;9.95;;;7.32;;
30181;SDS011;16990;49.056;9.240;2022-07-23T12:05:27;10.13;;;7.30;;
30181;SDS011;16990;49.056;9.240;2022-07-23T12:07:55;9.25;;;6.75;;
30181;SDS011;16990;49.056;9.240;2022-07-23T12:10:23;12.93;;;7.43;;
30181;SDS011;16990;49.056;9.240;2022-07-23T12:12:52;8.35;;;6.78;;
30181;SDS011;16990;49.056;9.240;2022-07-23T12:15:20;9.38;;;6.57;;
30181;SDS011;16990;49.056;9.240;2022-07-23T12:17:50;10.77;;;6.80;;
30181;SDS011;16990;49.056;9.240;2022-07-23T12:20:20;7.70;;;6.60;;
30181;SDS011;16990;49.056;9.240;2022-07-23T12:22:48;9.70;;;7.35;;
30181;SDS011;16990;49.056;9.240;2022-07-23T12:25:16;9.02;;;7.85;;
30181;SDS011;16990;49.056;9.240;2022-07-23T12:27:45;7.93;;;7.10;;
30181;SDS011;16990;49.056;9.240;2022-07-23T12:30:19;10.07;;;6.63;;
30181;SDS011;16990;49.056;9.240;2022-07-23T12:32:51;8.82;;;6.47;;
30181;SDS011;16990;49.056;9.240;2022-07-23T12:35:19;10.55;;;6.22;;
30181;SDS011;16990;49.056;9.240;2022-07-23T12:37:47;8.13;;;6.30;;
30181;SDS011;16990;49.056;9.240;2022-07-23T12:43:03;10.40;;;5.95;;
30181;SDS011;16990;49.056;9.240;2022-07-23T12:45:42;11.07;;;6.00;;
30181;SDS011;16990;49.056;9.240;2022-07-23T12:48:23;10.63;;;6.57;;
30181;SDS011;16990;49.056;9.240;2022-07-23T12:50:52;9.70;;;6.25;;
30181;SDS011;16990;49.056;9.240;2022-07-23T12:53:21;8.40;;;6.20;;
30181;SDS011;16990;49.056;9.240;2022-07-23T12:55:49;11.85;;;7.13;;
30181;SDS011;16990;49.056;9.240;2022-07-23T12:58:17;6.93;;;6.03;;
30181;SDS011;16990;49.056;9.240;2022-07-23T13:00:54;8.77;;;5.63;;
30181;SDS011;16990;49.056;9.240;2022-07-23T13:03:31;9.70;;;5.95;;
30181;SDS011;16990;49.056;9.240;2022-07-23T13:06:00;8.32;;;6.05;;
30181;SDS011;16990;49.056;9.240;2022-07-23T13:08:28;8.88;;;6.55;;
30181;SDS011;16990;49.056;9.240;2022-07-23T13:10:56;14.23;;;6.72;;
30181;SDS011;16990;49.056;9.240;2022-07-23T13:13:23;9.52;;;6.53;;
30181;SDS011;16990;49.056;9.240;2022-07-23T13:15:52;6.85;;;5.60;;
30181;SDS011;16990;49.056;9.240;2022-07-23T13:18:19;7.88;;;6.60;;
30181;SDS011;16990;49.056;9.240;2022-07-23T13:20:48;9.45;;;5.63;;
30181;SDS011;16990;49.056;9.240;2022-07-23T13:23:15;14.70;;;5.95;;
30181;SDS011;16990;49.056;9.240;2022-07-23T13:25:43;8.15;;;6.43;;
30181;SDS011;16990;49.056;9.240;2022-07-23T13:28:10;8.73;;;6.50;;
30181;SDS011;16990;49.056;9.240;2022-07-23T13:30:37;10.45;;;6.35;;
30181;SDS011;16990;49.056;9.240;2022-07-23T13:33:04;8.20;;;5.55;;
30181;SDS011;16990;49.056;9.240;2022-07-23T13:35:31;9.23;;;5.75;;
30181;SDS011;16990;49.056;9.240;2022-07-23T13:37:59;6.30;;;5.35;;
30181;SDS011;16990;49.056;9.240;2022-07-23T13:40:26;9.23;;;5.30;;
30181;SDS011;16990;49.056;9.240;2022-07-23T13:42:52;8.77;;;5.55;;
30181;SDS011;16990;49.056;9.240;2022-07-23T13:45:19;10.18;;;6.28;;
30181;SDS011;16990;49.056;9.240;2022-07-23T13:47:46;13.10;;;5.50;;
30181;SDS011;16990;49.056;9.240;2022-07-23T13:50:13;8.27;;;5.47;;
30181;SDS011;16990;49.056;9.240;2022-07-23T13:52:41;8.60;;;5.22;;
30181;SDS011;16990;49.056;9.240;2022-07-23T13:55:10;6.45;;;4.93;;
30181;SDS011;16990;49.056;9.240;2022-07-23T13:57:37;9.00;;;5.22;;
30181;SDS011;16990;49.056;9.240;2022-07-23T14:00:04;9.23;;;5.00;;
30181;SDS011;16990;49.056;9.240;2022-07-23T14:02:34;7.50;;;5.60;;
30181;SDS011;16990;49.056;9.240;2022-07-23T14:05:01;10.05;;;5.45;;
30181;SDS011;16990;49.056;9.240;2022-07-23T14:07:28;8.48;;;6.00;;
30181;SDS011;16990;49.056;9.240;2022-07-23T14:09:55;7.72;;;4.97;;
30181;SDS011;16990;49.056;9.240;2022-07-23T14:12:23;7.25;;;5.93;;
30181;SDS011;16990;49.056;9.240;2022-07-23T14:14:50;10.32;;;6.47;;
30181;SDS011;16990;49.056;9.240;2022-07-23T14:17:16;7.82;;;5.63;;
30181;SDS011;16990;49.056;9.240;2022-07-23T14:19:43;9.35;;;5.47;;
30181;SDS011;16990;49.056;9.240;2022-07-23T14:22:10;7.13;;;5.68;;
30181;SDS011;16990;49.056;9.240;2022-07-23T14:24:37;8.77;;;5.78;;
30181;SDS011;16990;49.056;9.240;2022-07-23T14:27:04;10.48;;;5.72;;
30181;SDS011;16990;49.056;9.240;2022-07-23T14:29:32;10.32;;;5.85;;
30181;SDS011;16990;49.056;9.240;2022-07-23T14:31:59;8.85;;;6.38;;
30181;SDS011;16990;49.056;9.240;2022-07-23T14:34:26;7.68;;;5.90;;
30181;SDS011;16990;49.056;9.240;2022-07-23T14:36:53;13.07;;;6.28;;
30181;SDS011;16990;49.056;9.240;2022-07-23T14:39:20;9.07;;;6.20;;
30181;SDS011;16990;49.056;9.240;2022-07-23T14:41:47;8.68;;;6.00;;
30181;SDS011;16990;49.056;9.240;2022-07-23T14:44:14;9.15;;;6.35;;
30181;SDS011;16990;49.056;9.240;2022-07-23T14:46:41;8.15;;;5.80;;
30181;SDS011;16990;49.056;9.240;2022-07-23T14:49:08;8.43;;;5.97;;
30181;SDS011;16990;49.056;9.240;2022-07-23T14:51:35;9.13;;;6.55;;
30181;SDS011;16990;49.056;9.240;2022-07-23T14:54:02;8.70;;;6.53;;
30181;SDS011;16990;49.056;9.240;2022-07-23T14:56:29;9.93;;;6.40;;
30181;SDS011;16990;49.056;9.240;2022-07-23T14:58:56;13.73;;;6.43;;
30181;SDS011;16990;49.056;9.240;2022-07-23T15:01:23;13.25;;;6.47;;